sensor_id;sensor_type;location;lat;lon;timestamp;pressure;altitude;pressure_sealevel;temperature;humidity
26775;BME280;14362;51.902;7.626;2022-08-19T00:00:10;100712.97;;;18.81;100.00
26775;BME280;14362;51.902;7.626;2022-08-19T00:04:17;100713.34;;;18.79;100.00
26775;BME280;14362;51.902;7.626;2022-08-19T00:08:18;100716.13;;;18.76;100.00
26775;BME280;14362;51.902;7.626;2022-08-19T00:12:20;100721.28;;;18.70;100.00
26775;BME280;14362;51.902;7.626;2022-08-19T00:16:23;100717.63;;;18.70;100.00
26775;BME280;14362;51.902;7.626;2022-08-19T00:20:25;100720.88;;;18.72;100.00
26775;BME280;14362;51.902;7.626;2022-08-19T00:24:27;100734.97;;;18.68;100.00
26775;BME280;14362;51.902;7.626;2022-08-19T00:28:28;100741.81;;;18.67;100.00
26775;BME280;14362;51.902;7.626;2022-08-19T00:32:31;100736.03;;;18.60;100.00
26775;BME280;14362;51.902;7.626;2022-08-19T00:36:35;100725.06;;;18.55;100.00
26775;BME280;14362;51.902;7.626;2022-08-19T00:40:37;100724.63;;;18.53;100.00
26775;BME280;14362;51.902;7.626;2022-08-19T00:44:39;100723.03;;;18.56;100.00
26775;BME280;14362;51.902;7.626;2022-08-19T00:48:42;100719.09;;;18.60;100.00
26775;BME280;14362;51.902;7.626;2022-08-19T00:52:47;100714.63;;;18.59;100.00
26775;BME280;14362;51.902;7.626;2022-08-19T00:56:50;100720.63;;;18.54;100.00
26775;BME280;14362;51.902;7.626;2022-08-19T01:00:52;100707.31;;;18.55;100.00
26775;BME280;14362;51.902;7.626;2022-08-19T01:04:55;100708.06;;;18.52;100.00
26775;BME280;14362;51.902;7.626;2022-08-19T01:08:56;100707.63;;;18.50;100.00
26775;BME280;14362;51.902;7.626;2022-08-19T01:12:59;100702.03;;;18.53;100.00
26775;BME280;14362;51.902;7.626;2022-08-19T01:17:03;100701.56;;;18.48;100.00
26775;BME280;14362;51.902;7.626;2022-08-19T01:21:10;100699.53;;;18.49;100.00
26775;BME280;14362;51.902;7.626;2022-08-19T01:25:18;100693.94;;;18.52;100.00
26775;BME280;14362;51.902;7.626;2022-08-19T01:29:20;100696.22;;;18.43;100.00
26775;BME280;14362;51.902;7.626;2022-08-19T01:33:22;100704.94;;;18.35;100.00
26775;BME280;14362;51.902;7.626;2022-08-19T01:37:23;100713.41;;;18.35;100.00
26775;BME280;14362;51.902;7.626;2022-08-19T01:41:26;100705.66;;;18.28;100.00
26775;BME280;14362;51.902;7.626;2022-08-19T01:45:29;100703.13;;;18.23;100.00
26775;BME280;14362;51.902;7.626;2022-08-19T01:49:31;100689.47;;;18.25;100.00
26775;BME280;14362;51.902;7.626;2022-08-19T01:53:33;100713.50;;;18.19;100.00
26775;BME280;14362;51.902;7.626;2022-08-19T01:57:36;100702.06;;;18.12;100.00
26775;BME280;14362;51.902;7.626;2022-08-19T02:01:38;100698.38;;;18.08;100.00
26775;BME280;14362;51.902;7.626;2022-08-19T02:05:40;100707.22;;;18.07;100.00
26775;BME280;14362;51.902;7.626;2022-08-19T02:09:42;100702.31;;;18.04;100.00
26775;BME280;14362;51.902;7.626;2022-08-19T02:13:44;100710.72;;;18.00;100.00
26775;BME280;14362;51.902;7.626;2022-08-19T02:17:46;100709.78;;;17.93;100.00
26775;BME280;14362;51.902;7.626;2022-08-19T02:21:47;100684.78;;;17.91;100.00
26775;BME280;14362;51.902;7.626;2022-08-19T02:25:49;100686.31;;;17.89;100.00
26775;BME280;14362;51.902;7.626;2022-08-19T02:29:52;100679.13;;;17.91;100.00
26775;BME280;14362;51.902;7.626;2022-08-19T02:33:54;100685.19;;;17.93;100.00
26775;BME280;14362;51.902;7.626;2022-08-19T02:37:55;100688.00;;;17.93;100.00
26775;BME280;14362;51.902;7.626;2022-08-19T02:42:14;100689.03;;;17.82;100.00
26775;BME280;14362;51.902;7.626;2022-08-19T02:46:20;100700.44;;;17.89;100.00
26775;BME280;14362;51.902;7.626;2022-08-19T02:50:21;100702.28;;;17.81;100.00
26775;BME280;14362;51.902;7.626;2022-08-19T02:54:23;100697.63;;;17.70;100.00
26775;BME280;14362;51.902;7.626;2022-08-19T02:58:24;100679.28;;;17.79;100.00
26775;BME280;14362;51.902;7.626;2022-08-19T03:02:28;100682.78;;;17.73;100.00
26775;BME280;14362;51.902;7.626;2022-08-19T03:06:31;100679.03;;;17.65;100.00
26775;BME280;14362;51.902;7.626;2022-08-19T03:10:32;100682.22;;;17.64;100.00
26775;BME280;14362;51.902;7.626;2022-08-19T03:14:34;100679.31;;;17.60;100.00
26775;BME280;14362;51.902;7.626;2022-08-19T03:18:37;100679.75;;;17.62;100.00
26775;BME280;14362;51.902;7.626;2022-08-19T03:22:39;100694.16;;;17.57;100.00
26775;BME280;14362;51.902;7.626;2022-08-19T03:26:42;100687.25;;;17.55;100.00
26775;BME280;14362;51.902;7.626;2022-08-19T03:30:55;100696.09;;;17.53;100.00
26775;BME280;14362;51.902;7.626;2022-08-19T03:34:58;100691.34;;;17.57;100.00
26775;BME280;14362;51.902;7.626;2022-08-19T03:39:00;100697.28;;;17.52;100.00
26775;BME280;14362;51.902;7.626;2022-08-19T03:43:02;100693.88;;;17.44;100.00
26775;BME280;14362;51.902;7.626;2022-08-19T03:47:04;100683.03;;;17.46;100.00
26775;BME280;14362;51.902;7.626;2022-08-19T03:51:14;100691.50;;;17.46;100.00
26775;BME280;14362;51.902;7.626;2022-08-19T03:55:16;100699.88;;;17.42;100.00
26775;BME280;14362;51.902;7.626;2022-08-19T03:59:20;100703.50;;;17.43;100.00
26775;BME280;14362;51.902;7.626;2022-08-19T04:03:25;100695.13;;;17.46;100.00
26775;BME280;14362;51.902;7.626;2022-08-19T04:07:28;100701.13;;;17.45;100.00
26775;BME280;14362;51.902;7.626;2022-08-19T04:11:33;100697.88;;;17.43;100.00
26775;BME280;14362;51.902;7.626;2022-08-19T04:15:39;100713.06;;;17.38;100.00
26775;BME280;14362;51.902;7.626;2022-08-19T04:19:41;100701.88;;;17.42;100.00
26775;BME280;14362;51.902;7.626;2022-08-19T04:23:45;100704.63;;;17.38;100.00
26775;BME280;14362;51.902;7.626;2022-08-19T04:27:46;100701.88;;;17.42;100.00
26775;BME280;14362;51.902;7.626;2022-08-19T04:31:49;100697.75;;;17.36;100.00
26775;BME280;14362;51.902;7.626;2022-08-19T04:35:52;100700.91;;;17.34;100.00
26775;BME280;14362;51.902;7.626;2022-08-19T04:39:55;100704.91;;;17.33;100.00
26775;BME280;14362;51.902;7.626;2022-08-19T04:44:14;100702.34;;;17.28;100.00
26775;BME280;14362;51.902;7.626;2022-08-19T04:48:18;100705.53;;;17.27;100.00
26775;BME280;14362;51.902;7.626;2022-08-19T04:52:25;100708.19;;;17.35;100.00
26775;BME280;14362;51.902;7.626;2022-08-19T04:56:28;100709.28;;;17.31;100.00
26775;BME280;14362;51.902;7.626;2022-08-19T05:00:30;100714.56;;;17.32;100.00
26775;BME280;14362;51.902;7.626;2022-08-19T05:04:31;100715.00;;;17.34;100.00
26775;BME280;14362;51.902;7.626;2022-08-19T05:08:34;100720.69;;;17.38;100.00
26775;BME280;14362;51.902;7.626;2022-08-19T05:12:37;100724.88;;;17.44;100.00
26775;BME280;14362;51.902;7.626;2022-08-19T05:16:39;100733.03;;;17.48;100.00
26775;BME280;14362;51.902;7.626;2022-08-19T05:20:41;100741.19;;;17.53;100.00
26775;BME280;14362;51.902;7.626;2022-08-19T05:25:03;100734.97;;;17.63;100.00
26775;BME280;14362;51.902;7.626;2022-08-19T05:29:07;100744.44;;;17.74;100.00
26775;BME280;14362;51.902;7.626;2022-08-19T05:33:09;100740.13;;;17.80;100.00
26775;BME280;14362;51.902;7.626;2022-08-19T05:37:11;100739.91;;;17.89;100.00
26775;BME280;14362;51.902;7.626;2022-08-19T05:41:14;100742.25;;;18.06;100.00
26775;BME280;14362;51.902;7.626;2022-08-19T05:45:18;100737.63;;;18.17;100.00
26775;BME280;14362;51.902;7.626;2022-08-19T05:49:22;100742.31;;;18.28;100.00
26775;BME280;14362;51.902;7.626;2022-08-19T05:53:25;100734.84;;;18.39;100.00
26775;BME280;14362;51.902;7.626;2022-08-19T05:57:27;100729.25;;;18.65;100.00
26775;BME280;14362;51.902;7.626;2022-08-19T06:01:30;100721.22;;;18.93;100.00
26775;BME280;14362;51.902;7.626;2022-08-19T06:05:31;100723.41;;;19.03;100.00
26775;BME280;14362;51.902;7.626;2022-08-19T06:09:33;100716.63;;;19.07;100.00
26775;BME280;14362;51.902;7.626;2022-08-19T06:13:35;100730.34;;;19.09;100.00
26775;BME280;14362;51.902;7.626;2022-08-19T06:17:38;100736.53;;;19.14;100.00
26775;BME280;14362;51.902;7.626;2022-08-19T06:21:41;100732.88;;;19.14;100.00
26775;BME280;14362;51.902;7.626;2022-08-19T06:25:43;100738.56;;;19.17;100.00
26775;BME280;14362;51.902;7.626;2022-08-19T06:29:44;100737.06;;;19.23;100.00
26775;BME280;14362;51.902;7.626;2022-08-19T06:33:48;100733.94;;;19.32;100.00
26775;BME280;14362;51.902;7.626;2022-08-19T06:37:50;100729.19;;;19.39;100.00
26775;BME280;14362;51.902;7.626;2022-08-19T06:41:54;100722.91;;;19.49;100.00
26775;BME280;14362;51.902;7.626;2022-08-19T06:45:56;100731.97;;;19.65;100.00
26775;BME280;14362;51.902;7.626;2022-08-19T06:50:00;100731.84;;;19.87;100.00
26775;BME280;14362;51.902;7.626;2022-08-19T06:54:03;100720.13;;;20.18;100.00
26775;BME280;14362;51.902;7.626;2022-08-19T06:58:05;100713.50;;;20.47;100.00
26775;BME280;14362;51.902;7.626;2022-08-19T07:02:07;100712.94;;;20.74;100.00
26775;BME280;14362;51.902;7.626;2022-08-19T07:06:13;100715.94;;;20.92;100.00
26775;BME280;14362;51.902;7.626;2022-08-19T07:10:17;100720.09;;;21.08;100.00
26775;BME280;14362;51.902;7.626;2022-08-19T07:14:21;100725.09;;;21.29;100.00
26775;BME280;14362;51.902;7.626;2022-08-19T07:18:24;100723.16;;;21.50;100.00
26775;BME280;14362;51.902;7.626;2022-08-19T07:22:27;100723.59;;;21.56;100.00
26775;BME280;14362;51.902;7.626;2022-08-19T07:26:31;100727.31;;;21.60;100.00
26775;BME280;14362;51.902;7.626;2022-08-19T07:30:36;100726.50;;;21.59;100.00
26775;BME280;14362;51.902;7.626;2022-08-19T07:34:37;100735.81;;;21.60;100.00
26775;BME280;14362;51.902;7.626;2022-08-19T07:38:42;100743.16;;;21.71;100.00
26775;BME280;14362;51.902;7.626;2022-08-19T07:42:44;100739.53;;;21.81;100.00
26775;BME280;14362;51.902;7.626;2022-08-19T07:46:49;100756.22;;;21.96;100.00
26775;BME280;14362;51.902;7.626;2022-08-19T07:50:52;100753.41;;;22.00;100.00
26775;BME280;14362;51.902;7.626;2022-08-19T07:54:55;100761.94;;;22.07;100.00
26775;BME280;14362;51.902;7.626;2022-08-19T07:58:57;100754.66;;;22.02;100.00
26775;BME280;14362;51.902;7.626;2022-08-19T08:02:58;100760.75;;;22.08;100.00
26775;BME280;14362;51.902;7.626;2022-08-19T08:07:00;100761.59;;;22.26;100.00
26775;BME280;14362;51.902;7.626;2022-08-19T08:11:20;100763.31;;;22.48;100.00
26775;BME280;14362;51.902;7.626;2022-08-19T08:15:22;100769.00;;;22.72;100.00
26775;BME280;14362;51.902;7.626;2022-08-19T08:19:25;100773.88;;;22.89;99.45
26775;BME280;14362;51.902;7.626;2022-08-19T08:23:27;100785.25;;;22.99;96.91
26775;BME280;14362;51.902;7.626;2022-08-19T08:27:35;100791.38;;;23.15;96.47
26775;BME280;14362;51.902;7.626;2022-08-19T08:31:40;100792.59;;;23.32;96.30
26775;BME280;14362;51.902;7.626;2022-08-19T08:35:42;100790.97;;;23.38;94.00
26775;BME280;14362;51.902;7.626;2022-08-19T08:39:45;100787.69;;;23.46;94.52
26775;BME280;14362;51.902;7.626;2022-08-19T08:43:51;100789.66;;;23.60;93.47
26775;BME280;14362;51.902;7.626;2022-08-19T08:47:55;100782.31;;;23.76;92.19
26775;BME280;14362;51.902;7.626;2022-08-19T08:52:03;100783.13;;;23.77;90.41
26775;BME280;14362;51.902;7.626;2022-08-19T08:56:06;100788.00;;;23.80;91.53
26775;BME280;14362;51.902;7.626;2022-08-19T09:00:17;100786.81;;;23.84;90.86
26775;BME280;14362;51.902;7.626;2022-08-19T09:04:20;100783.50;;;23.92;90.99
26775;BME280;14362;51.902;7.626;2022-08-19T09:08:30;100780.63;;;23.96;90.08
26775;BME280;14362;51.902;7.626;2022-08-19T09:12:39;100772.91;;;23.93;88.33
26775;BME280;14362;51.902;7.626;2022-08-19T09:16:44;100769.63;;;24.01;87.57
26775;BME280;14362;51.902;7.626;2022-08-19T09:20:46;100770.34;;;24.19;86.86
26775;BME280;14362;51.902;7.626;2022-08-19T09:24:48;100771.56;;;24.22;83.78
26775;BME280;14362;51.902;7.626;2022-08-19T09:28:51;100765.97;;;24.01;85.32
26775;BME280;14362;51.902;7.626;2022-08-19T09:32:55;100783.00;;;24.08;85.22
26775;BME280;14362;51.902;7.626;2022-08-19T09:36:57;100781.41;;;24.03;84.86
26775;BME280;14362;51.902;7.626;2022-08-19T09:41:04;100786.72;;;24.05;82.88
26775;BME280;14362;51.902;7.626;2022-08-19T09:45:06;100776.53;;;24.07;80.00
26775;BME280;14362;51.902;7.626;2022-08-19T09:49:09;100772.81;;;24.21;76.46
26775;BME280;14362;51.902;7.626;2022-08-19T09:53:10;100765.34;;;24.41;76.00
26775;BME280;14362;51.902;7.626;2022-08-19T09:57:12;100766.00;;;24.66;75.11
26775;BME280;14362;51.902;7.626;2022-08-19T10:01:19;100753.94;;;24.98;72.93
26775;BME280;14362;51.902;7.626;2022-08-19T10:05:22;100758.03;;;24.94;72.13
26775;BME280;14362;51.902;7.626;2022-08-19T10:09:37;100761.19;;;25.10;72.11
26775;BME280;14362;51.902;7.626;2022-08-19T10:13:41;100755.84;;;25.15;72.11
26775;BME280;14362;51.902;7.626;2022-08-19T10:17:43;100760.34;;;25.13;71.33
26775;BME280;14362;51.902;7.626;2022-08-19T10:21:46;100752.91;;;25.22;70.98
26775;BME280;14362;51.902;7.626;2022-08-19T10:25:48;100757.38;;;25.27;71.33
26775;BME280;14362;51.902;7.626;2022-08-19T10:29:49;100751.63;;;25.30;71.04
26775;BME280;14362;51.902;7.626;2022-08-19T10:33:51;100749.72;;;25.17;70.09
26775;BME280;14362;51.902;7.626;2022-08-19T10:37:58;100755.78;;;25.22;70.43
26775;BME280;14362;51.902;7.626;2022-08-19T10:42:04;100741.78;;;25.35;68.44
26775;BME280;14362;51.902;7.626;2022-08-19T10:46:06;100736.94;;;25.32;64.72
26775;BME280;14362;51.902;7.626;2022-08-19T10:50:08;100739.56;;;25.53;63.77
26775;BME280;14362;51.902;7.626;2022-08-19T10:54:28;100740.72;;;25.59;63.41
26775;BME280;14362;51.902;7.626;2022-08-19T10:58:43;100738.00;;;25.78;57.95
26775;BME280;14362;51.902;7.626;2022-08-19T11:02:45;100728.41;;;25.98;57.35
26775;BME280;14362;51.902;7.626;2022-08-19T11:06:48;100737.94;;;26.18;52.53
26775;BME280;14362;51.902;7.626;2022-08-19T11:10:53;100744.31;;;26.29;53.16
26775;BME280;14362;51.902;7.626;2022-08-19T11:14:55;100738.41;;;26.13;56.86
26775;BME280;14362;51.902;7.626;2022-08-19T11:18:58;100727.19;;;25.99;59.56
26775;BME280;14362;51.902;7.626;2022-08-19T11:23:00;100738.75;;;25.89;60.35
26775;BME280;14362;51.902;7.626;2022-08-19T11:27:06;100725.22;;;25.93;60.91
26775;BME280;14362;51.902;7.626;2022-08-19T11:31:11;100722.25;;;26.03;61.31
26775;BME280;14362;51.902;7.626;2022-08-19T11:35:13;100721.13;;;26.24;59.00
26775;BME280;14362;51.902;7.626;2022-08-19T11:39:16;100721.59;;;26.19;58.47
26775;BME280;14362;51.902;7.626;2022-08-19T11:43:20;100714.75;;;26.13;56.63
26775;BME280;14362;51.902;7.626;2022-08-19T11:47:21;100719.38;;;26.03;55.73
26775;BME280;14362;51.902;7.626;2022-08-19T11:51:24;100711.75;;;25.94;58.96
26775;BME280;14362;51.902;7.626;2022-08-19T11:55:26;100714.28;;;25.88;60.50
26775;BME280;14362;51.902;7.626;2022-08-19T11:59:28;100716.69;;;25.90;61.17
26775;BME280;14362;51.902;7.626;2022-08-19T12:03:30;100711.78;;;26.20;60.37
26775;BME280;14362;51.902;7.626;2022-08-19T12:07:32;100706.75;;;26.27;58.62
26775;BME280;14362;51.902;7.626;2022-08-19T12:11:33;100704.09;;;26.43;57.33
26775;BME280;14362;51.902;7.626;2022-08-19T12:15:39;100705.69;;;26.71;57.94
26775;BME280;14362;51.902;7.626;2022-08-19T12:19:41;100700.16;;;26.83;55.50
26775;BME280;14362;51.902;7.626;2022-08-19T12:23:43;100704.72;;;26.81;56.01
26775;BME280;14362;51.902;7.626;2022-08-19T12:27:45;100693.16;;;27.10;54.34
26775;BME280;14362;51.902;7.626;2022-08-19T12:31:48;100704.97;;;27.12;53.13
26775;BME280;14362;51.902;7.626;2022-08-19T12:35:49;100686.75;;;27.26;52.23
26775;BME280;14362;51.902;7.626;2022-08-19T12:39:50;100690.88;;;27.44;52.97
26775;BME280;14362;51.902;7.626;2022-08-19T12:43:52;100695.88;;;27.60;50.79
26775;BME280;14362;51.902;7.626;2022-08-19T12:47:55;100692.22;;;27.79;47.38
26775;BME280;14362;51.902;7.626;2022-08-19T12:51:56;100689.41;;;27.56;48.38
26775;BME280;14362;51.902;7.626;2022-08-19T12:55:58;100688.34;;;27.08;49.63
26775;BME280;14362;51.902;7.626;2022-08-19T13:00:04;100687.50;;;27.30;49.81
26775;BME280;14362;51.902;7.626;2022-08-19T13:04:09;100681.63;;;27.56;49.29
26775;BME280;14362;51.902;7.626;2022-08-19T13:08:10;100679.38;;;27.87;48.90
26775;BME280;14362;51.902;7.626;2022-08-19T13:12:12;100668.22;;;28.08;47.55
26775;BME280;14362;51.902;7.626;2022-08-19T13:16:14;100671.03;;;28.12;46.31
26775;BME280;14362;51.902;7.626;2022-08-19T13:20:19;100670.53;;;28.32;46.17
26775;BME280;14362;51.902;7.626;2022-08-19T13:24:21;100666.06;;;28.31;45.27
26775;BME280;14362;51.902;7.626;2022-08-19T13:28:23;100660.91;;;28.42;44.78
26775;BME280;14362;51.902;7.626;2022-08-19T13:32:24;100667.88;;;28.57;42.76
26775;BME280;14362;51.902;7.626;2022-08-19T13:36:45;100646.56;;;28.58;44.52
26775;BME280;14362;51.902;7.626;2022-08-19T13:40:47;100651.13;;;28.72;43.66
26775;BME280;14362;51.902;7.626;2022-08-19T13:44:51;100648.38;;;28.84;44.10
26775;BME280;14362;51.902;7.626;2022-08-19T13:48:54;100650.03;;;28.82;44.67
26775;BME280;14362;51.902;7.626;2022-08-19T13:52:58;100644.63;;;28.87;44.01
26775;BME280;14362;51.902;7.626;2022-08-19T13:57:00;100642.53;;;28.88;44.02
26775;BME280;14362;51.902;7.626;2022-08-19T14:01:01;100632.63;;;29.05;43.31
26775;BME280;14362;51.902;7.626;2022-08-19T14:05:03;100632.63;;;29.05;43.53
26775;BME280;14362;51.902;7.626;2022-08-19T14:09:06;100628.44;;;28.77;43.25
26775;BME280;14362;51.902;7.626;2022-08-19T14:13:07;100622.16;;;28.98;43.20
26775;BME280;14362;51.902;7.626;2022-08-19T14:17:09;100626.13;;;29.17;40.99
26775;BME280;14362;51.902;7.626;2022-08-19T14:21:14;100639.00;;;28.80;42.09
26775;BME280;14362;51.902;7.626;2022-08-19T14:25:20;100634.28;;;28.58;42.54
26775;BME280;14362;51.902;7.626;2022-08-19T14:29:22;100631.13;;;28.36;43.52
26775;BME280;14362;51.902;7.626;2022-08-19T14:33:24;100631.97;;;28.17;43.39
26775;BME280;14362;51.902;7.626;2022-08-19T14:37:25;100637.78;;;27.98;44.54
26775;BME280;14362;51.902;7.626;2022-08-19T14:41:28;100643.53;;;27.79;44.56
26775;BME280;14362;51.902;7.626;2022-08-19T14:45:31;100636.78;;;27.69;44.56
26775;BME280;14362;51.902;7.626;2022-08-19T14:49:34;100643.31;;;27.70;44.29
26775;BME280;14362;51.902;7.626;2022-08-19T14:53:35;100646.75;;;27.61;44.28
26775;BME280;14362;51.902;7.626;2022-08-19T14:57:40;100635.66;;;27.63;45.30
26775;BME280;14362;51.902;7.626;2022-08-19T15:01:41;100648.19;;;27.73;44.80
26775;BME280;14362;51.902;7.626;2022-08-19T15:05:43;100647.63;;;27.58;44.55
26775;BME280;14362;51.902;7.626;2022-08-19T15:09:44;100649.63;;;27.61;44.68
26775;BME280;14362;51.902;7.626;2022-08-19T15:13:47;100654.69;;;27.54;45.77
26775;BME280;14362;51.902;7.626;2022-08-19T15:17:50;100660.09;;;27.48;44.50
26775;BME280;14362;51.902;7.626;2022-08-19T15:21:51;100657.81;;;27.40;44.69
26775;BME280;14362;51.902;7.626;2022-08-19T15:25:54;100660.69;;;27.40;44.47
26775;BME280;14362;51.902;7.626;2022-08-19T15:29:57;100656.66;;;27.37;45.16
26775;BME280;14362;51.902;7.626;2022-08-19T15:33:59;100661.06;;;27.42;44.97
26775;BME280;14362;51.902;7.626;2022-08-19T15:38:00;100664.88;;;27.35;45.18
26775;BME280;14362;51.902;7.626;2022-08-19T15:42:02;100665.38;;;27.30;45.79
26775;BME280;14362;51.902;7.626;2022-08-19T15:46:05;100670.06;;;27.21;45.94
26775;BME280;14362;51.902;7.626;2022-08-19T15:50:08;100667.19;;;27.21;45.25
26775;BME280;14362;51.902;7.626;2022-08-19T15:54:14;100669.84;;;27.12;46.18
26775;BME280;14362;51.902;7.626;2022-08-19T15:58:15;100667.28;;;26.95;45.59
26775;BME280;14362;51.902;7.626;2022-08-19T16:02:36;100670.13;;;26.95;45.48
26775;BME280;14362;51.902;7.626;2022-08-19T16:06:57;100678.34;;;26.93;46.13
26775;BME280;14362;51.902;7.626;2022-08-19T16:10:59;100681.53;;;26.98;45.18
26775;BME280;14362;51.902;7.626;2022-08-19T16:15:00;100675.56;;;26.89;45.76
26775;BME280;14362;51.902;7.626;2022-08-19T16:19:06;100675.09;;;26.91;45.66
26775;BME280;14362;51.902;7.626;2022-08-19T16:23:08;100678.41;;;26.89;45.83
26775;BME280;14362;51.902;7.626;2022-08-19T16:27:09;100682.59;;;26.85;46.07
26775;BME280;14362;51.902;7.626;2022-08-19T16:31:12;100679.19;;;26.90;46.76
26775;BME280;14362;51.902;7.626;2022-08-19T16:35:15;100685.50;;;26.81;47.22
26775;BME280;14362;51.902;7.626;2022-08-19T16:39:16;100683.16;;;26.76;47.73
26775;BME280;14362;51.902;7.626;2022-08-19T16:43:18;100686.50;;;26.71;48.53
26775;BME280;14362;51.902;7.626;2022-08-19T16:47:20;100693.16;;;26.65;48.65
26775;BME280;14362;51.902;7.626;2022-08-19T16:51:23;100707.94;;;26.60;48.55
26775;BME280;14362;51.902;7.626;2022-08-19T16:55:24;100695.69;;;26.59;48.91
26775;BME280;14362;51.902;7.626;2022-08-19T16:59:27;100696.50;;;26.60;49.54
26775;BME280;14362;51.902;7.626;2022-08-19T17:03:29;100697.72;;;26.59;49.56
26775;BME280;14362;51.902;7.626;2022-08-19T17:07:32;100692.84;;;26.59;49.59
26775;BME280;14362;51.902;7.626;2022-08-19T17:11:34;100690.84;;;26.56;49.50
26775;BME280;14362;51.902;7.626;2022-08-19T17:15:36;100690.47;;;26.54;49.57
26775;BME280;14362;51.902;7.626;2022-08-19T17:19:38;100690.94;;;26.49;49.00
26775;BME280;14362;51.902;7.626;2022-08-19T17:23:42;100684.03;;;26.47;48.60
26775;BME280;14362;51.902;7.626;2022-08-19T17:27:44;100680.75;;;26.48;48.38
26775;BME280;14362;51.902;7.626;2022-08-19T17:31:45;100689.44;;;26.38;48.32
26775;BME280;14362;51.902;7.626;2022-08-19T17:35:47;100680.13;;;26.34;48.15
26775;BME280;14362;51.902;7.626;2022-08-19T17:39:50;100683.50;;;26.29;46.67
26775;BME280;14362;51.902;7.626;2022-08-19T17:43:51;100674.22;;;26.21;46.29
26775;BME280;14362;51.902;7.626;2022-08-19T17:47:53;100677.94;;;26.18;45.99
26775;BME280;14362;51.902;7.626;2022-08-19T17:51:55;100674.63;;;26.20;45.54
26775;BME280;14362;51.902;7.626;2022-08-19T17:55:59;100670.69;;;26.10;45.66
26775;BME280;14362;51.902;7.626;2022-08-19T18:00:01;100674.00;;;26.09;45.99
26775;BME280;14362;51.902;7.626;2022-08-19T18:04:03;100682.25;;;26.03;45.61
26775;BME280;14362;51.902;7.626;2022-08-19T18:08:06;100676.16;;;25.98;45.46
26775;BME280;14362;51.902;7.626;2022-08-19T18:12:12;100672.56;;;25.94;45.28
26775;BME280;14362;51.902;7.626;2022-08-19T18:16:15;100672.66;;;25.87;45.54
26775;BME280;14362;51.902;7.626;2022-08-19T18:20:18;100674.81;;;25.76;46.15
26775;BME280;14362;51.902;7.626;2022-08-19T18:24:19;100670.13;;;25.63;46.74
26775;BME280;14362;51.902;7.626;2022-08-19T18:28:22;100671.03;;;25.53;47.19
26775;BME280;14362;51.902;7.626;2022-08-19T18:32:26;100678.09;;;25.41;47.87
26775;BME280;14362;51.902;7.626;2022-08-19T18:36:27;100678.22;;;25.31;48.48
26775;BME280;14362;51.902;7.626;2022-08-19T18:40:29;100691.38;;;25.21;49.34
26775;BME280;14362;51.902;7.626;2022-08-19T18:44:49;100695.94;;;25.12;50.11
26775;BME280;14362;51.902;7.626;2022-08-19T18:49:09;100704.13;;;25.13;49.89
26775;BME280;14362;51.902;7.626;2022-08-19T18:53:11;100705.84;;;25.00;53.63
26775;BME280;14362;51.902;7.626;2022-08-19T18:57:13;100707.94;;;24.96;63.11
26775;BME280;14362;51.902;7.626;2022-08-19T19:01:20;100722.28;;;24.83;69.38
26775;BME280;14362;51.902;7.626;2022-08-19T19:10:22;100723.31;;;24.59;76.11
26775;BME280;14362;51.902;7.626;2022-08-19T19:14:25;100735.97;;;24.54;77.21
26775;BME280;14362;51.902;7.626;2022-08-19T19:18:32;100737.63;;;24.52;78.23
26775;BME280;14362;51.902;7.626;2022-08-19T19:22:33;100750.72;;;24.35;79.64
26775;BME280;14362;51.902;7.626;2022-08-19T19:26:35;100760.94;;;24.26;80.86
26775;BME280;14362;51.902;7.626;2022-08-19T19:30:37;100749.63;;;24.15;81.55
26775;BME280;14362;51.902;7.626;2022-08-19T19:34:40;100746.41;;;24.06;82.36
26775;BME280;14362;51.902;7.626;2022-08-19T19:38:41;100755.38;;;24.01;83.26
26775;BME280;14362;51.902;7.626;2022-08-19T19:42:45;100759.50;;;23.93;84.43
26775;BME280;14362;51.902;7.626;2022-08-19T19:46:47;100774.97;;;23.89;84.36
26775;BME280;14362;51.902;7.626;2022-08-19T19:50:49;100771.72;;;23.90;84.51
26775;BME280;14362;51.902;7.626;2022-08-19T19:54:51;100783.53;;;23.79;85.79
26775;BME280;14362;51.902;7.626;2022-08-19T19:58:53;100781.13;;;23.77;86.40
26775;BME280;14362;51.902;7.626;2022-08-19T20:02:54;100788.84;;;23.63;87.84
26775;BME280;14362;51.902;7.626;2022-08-19T20:06:57;100781.97;;;23.60;88.52
26775;BME280;14362;51.902;7.626;2022-08-19T20:11:00;100788.06;;;23.52;89.92
26775;BME280;14362;51.902;7.626;2022-08-19T20:15:02;100791.34;;;23.47;89.85
26775;BME280;14362;51.902;7.626;2022-08-19T20:19:06;100792.16;;;23.40;90.62
26775;BME280;14362;51.902;7.626;2022-08-19T20:23:09;100789.31;;;23.40;90.33
26775;BME280;14362;51.902;7.626;2022-08-19T20:27:11;100788.53;;;23.40;90.44
26775;BME280;14362;51.902;7.626;2022-08-19T20:31:12;100800.31;;;23.35;91.52
26775;BME280;14362;51.902;7.626;2022-08-19T20:35:15;100798.28;;;23.32;91.80
26775;BME280;14362;51.902;7.626;2022-08-19T20:39:18;100799.91;;;23.33;91.33
26775;BME280;14362;51.902;7.626;2022-08-19T20:43:20;100801.13;;;23.28;90.94
26775;BME280;14362;51.902;7.626;2022-08-19T20:47:21;100796.66;;;23.20;91.11
26775;BME280;14362;51.902;7.626;2022-08-19T20:51:23;100806.03;;;23.21;90.86
26775;BME280;14362;51.902;7.626;2022-08-19T20:55:26;100815.34;;;23.18;91.57
26775;BME280;14362;51.902;7.626;2022-08-19T20:59:29;100810.06;;;23.13;91.91
26775;BME280;14362;51.902;7.626;2022-08-19T21:03:43;100819.81;;;23.12;91.38
26775;BME280;14362;51.902;7.626;2022-08-19T21:07:45;100822.63;;;23.05;92.03